createdAt,value
2022-08-17T00:00:33.355Z,84.30
2022-08-17T00:03:11.478Z,84.52
2022-08-17T00:05:43.875Z,84.48
2022-08-17T00:08:14.630Z,84.69
2022-08-17T00:10:44.561Z,85.35
2022-08-17T00:13:18.865Z,85.60
2022-08-17T00:15:46.722Z,85.11
2022-08-17T00:19:00.382Z,84.52
2022-08-17T00:21:10.474Z,84.35
2022-08-17T00:23:47.788Z,83.61
2022-08-17T00:26:43.442Z,83.26
2022-08-17T00:29:07.646Z,82.92
2022-08-17T00:31:37.811Z,82.29
2022-08-17T00:34:08.895Z,81.95
2022-08-17T00:36:36.401Z,82.06
2022-08-17T00:39:05.087Z,81.62
2022-08-17T00:41:32.824Z,81.79
2022-08-17T00:44:02.633Z,81.72
2022-08-17T00:46:36.948Z,82.53
2022-08-17T00:49:06.220Z,82.31
2022-08-17T00:51:44.447Z,82.80
2022-08-17T00:54:20.863Z,82.15
2022-08-17T00:56:53.097Z,82.70
2022-08-17T00:59:24.179Z,83.28
2022-08-17T01:01:52.323Z,83.24
2022-08-17T01:04:22.713Z,83.60
2022-08-17T01:06:51.302Z,84.10
2022-08-17T01:09:19.752Z,83.79
2022-08-17T01:11:53.248Z,83.90
2022-08-17T01:14:23.762Z,84.08
2022-08-17T01:16:54.578Z,83.87
2022-08-17T01:19:26.332Z,83.81
2022-08-17T01:21:57.486Z,83.71
2022-08-17T01:24:25.068Z,83.33
2022-08-17T01:26:52.009Z,83.51
2022-08-17T01:29:22.015Z,84.50
2022-08-17T01:31:58.038Z,84.11
2022-08-17T01:34:28.210Z,84.25
2022-08-17T01:37:10.071Z,84.02
2022-08-17T01:39:44.502Z,84.40
2022-08-17T01:42:23.561Z,84.28
2022-08-17T01:44:57.052Z,83.69
2022-08-17T01:47:24.348Z,83.95
2022-08-17T01:49:51.313Z,83.99
2022-08-17T01:52:19.259Z,83.94
2022-08-17T01:54:47.828Z,84.30
2022-08-17T01:57:15.293Z,84.42
2022-08-17T01:59:42.669Z,84.78
2022-08-17T02:02:10.415Z,84.83
2022-08-17T02:04:37.368Z,85.39
2022-08-17T02:07:05.474Z,85.22
2022-08-17T02:09:32.477Z,85.80
2022-08-17T02:12:38.358Z,86.22
2022-08-17T02:14:52.038Z,86.92
2022-08-17T02:17:18.989Z,86.37
2022-08-17T02:19:46.199Z,86.01
2022-08-17T02:22:13.728Z,85.66
2022-08-17T02:25:00.858Z,85.45
2022-08-17T02:27:29.604Z,85.53
2022-08-17T02:29:56.539Z,85.71
2022-08-17T02:32:28.061Z,85.64
2022-08-17T02:34:57.773Z,85.59
2022-08-17T02:37:26.139Z,85.75
2022-08-17T02:39:53.616Z,86.50
2022-08-17T02:42:28.068Z,86.58
2022-08-17T02:44:55.407Z,87.11
2022-08-17T02:47:22.480Z,87.50
2022-08-17T02:49:55.382Z,88.51
2022-08-17T02:52:53.520Z,88.30
2022-08-17T02:55:15.652Z,88.32
2022-08-17T02:57:43.572Z,88.21
2022-08-17T03:00:18.437Z,88.20
2022-08-17T03:02:45.948Z,88.17
2022-08-17T03:05:16.411Z,89.02
2022-08-17T03:07:45.898Z,88.99
2022-08-17T03:10:14.566Z,89.56
2022-08-17T03:12:43.479Z,89.72
2022-08-17T03:15:27.686Z,90.25
2022-08-17T03:17:56.817Z,90.31
2022-08-17T03:20:25.029Z,90.63
2022-08-17T03:22:55.843Z,90.96
2022-08-17T03:25:34.412Z,91.59
2022-08-17T03:28:02.311Z,91.50
2022-08-17T03:30:29.731Z,91.91
2022-08-17T03:33:00.204Z,92.05
2022-08-17T03:35:31.067Z,93.37
2022-08-17T03:38:00.792Z,92.96
2022-08-17T03:40:55.691Z,93.16
2022-08-17T03:43:18.310Z,92.93
2022-08-17T03:46:03.614Z,92.97
2022-08-17T03:48:52.523Z,92.81
2022-08-17T03:51:42.084Z,93.79
2022-08-17T03:54:29.376Z,95.11
2022-08-17T03:57:06.478Z,94.03
2022-08-17T03:59:35.282Z,93.39
2022-08-17T04:02:09.670Z,92.50
2022-08-17T04:04:38.358Z,92.00
2022-08-17T04:07:06.292Z,91.57
2022-08-17T04:09:33.666Z,91.48
2022-08-17T04:12:04.728Z,90.93
2022-08-17T04:14:51.841Z,90.31
2022-08-17T04:17:27.149Z,89.94
2022-08-17T04:19:55.575Z,89.67
2022-08-17T04:22:33.039Z,89.04
2022-08-17T04:25:05.266Z,88.72
2022-08-17T04:27:32.808Z,87.92
2022-08-17T04:29:59.829Z,87.27
2022-08-17T04:33:03.989Z,87.29
2022-08-17T04:35:22.978Z,86.93
2022-08-17T04:37:51.410Z,86.64
2022-08-17T04:40:39.408Z,86.47
2022-08-17T04:43:29.089Z,86.57
2022-08-17T04:46:02.497Z,86.29
2022-08-17T04:48:36.512Z,85.60
2022-08-17T04:51:19.679Z,85.39
2022-08-17T04:53:54.570Z,85.10
2022-08-17T04:56:24.118Z,84.79
2022-08-17T04:58:53.762Z,84.41
2022-08-17T05:01:24.003Z,84.13
2022-08-17T05:03:58.189Z,84.05
2022-08-17T05:06:26.971Z,84.23
2022-08-17T05:08:54.633Z,84.70
2022-08-17T05:11:23.558Z,84.85
2022-08-17T05:13:50.557Z,84.85
2022-08-17T05:16:19.995Z,85.31
2022-08-17T05:18:47.649Z,85.26
2022-08-17T05:21:15.690Z,85.05
2022-08-17T05:23:43.799Z,84.76
2022-08-17T05:26:25.694Z,85.14
2022-08-17T05:28:59.781Z,84.99
2022-08-17T05:31:30.908Z,84.88
2022-08-17T05:33:58.084Z,84.39
2022-08-17T05:36:41.592Z,83.50
2022-08-17T05:39:15.868Z,82.76
2022-08-17T05:41:48.010Z,81.90
2022-08-17T05:44:16.900Z,80.98
2022-08-17T05:46:50.295Z,80.35
2022-08-17T05:49:23.989Z,79.71
2022-08-17T05:52:00.271Z,79.09
2022-08-17T05:54:57.771Z,77.92
2022-08-17T05:57:57.017Z,76.27
2022-08-17T06:00:35.861Z,77.47
2022-08-17T06:03:19.054Z,77.13
2022-08-17T06:05:49.919Z,76.69
2022-08-17T06:08:17.852Z,75.95
2022-08-17T06:11:21.006Z,74.50
2022-08-17T06:13:58.896Z,74.46
2022-08-17T06:16:34.280Z,74.22
2022-08-17T06:19:17.777Z,73.49
2022-08-17T06:21:49.174Z,72.59
2022-08-17T06:24:25.121Z,72.53
2022-08-17T06:26:54.271Z,72.64
2022-08-17T06:29:27.222Z,71.88
2022-08-17T06:31:54.575Z,72.34
2022-08-17T06:34:22.185Z,72.08
2022-08-17T06:37:27.548Z,71.29
2022-08-17T06:40:33.304Z,70.28
2022-08-17T06:43:34.121Z,70.63
2022-08-17T06:46:18.547Z,70.49
2022-08-17T06:48:52.480Z,69.54
2022-08-17T06:51:33.753Z,69.14
2022-08-17T06:54:10.531Z,68.73
2022-08-17T06:56:54.155Z,68.63
2022-08-17T06:59:56.397Z,67.25
2022-08-17T07:02:55.894Z,66.26
2022-08-17T07:05:31.045Z,64.97
2022-08-17T07:08:29.180Z,64.32
2022-08-17T07:11:03.159Z,65.67
2022-08-17T07:13:55.671Z,65.27
2022-08-17T07:16:32.675Z,66.49
2022-08-17T07:19:00.639Z,66.34
2022-08-17T07:21:52.088Z,65.07
2022-08-17T07:24:41.836Z,64.77
2022-08-17T07:27:27.774Z,65.12
2022-08-17T07:29:59.404Z,64.49
2022-08-17T07:32:31.915Z,63.66
2022-08-17T07:35:19.939Z,64.62
2022-08-17T07:37:54.234Z,64.85
2022-08-17T07:40:28.880Z,64.88
2022-08-17T07:43:15.633Z,63.74
2022-08-17T07:46:22.011Z,62.86
2022-08-17T07:48:54.372Z,62.79
2022-08-17T07:51:31.619Z,62.21
2022-08-17T07:54:14.020Z,61.98
2022-08-17T07:56:56.696Z,61.87
2022-08-17T07:59:28.676Z,61.48
2022-08-17T08:02:18.381Z,61.39
2022-08-17T08:05:29.932Z,61.76
2022-08-17T08:08:18.979Z,61.90
2022-08-17T08:11:01.877Z,59.79
2022-08-17T08:13:32.661Z,59.83
2022-08-17T08:16:20.026Z,57.58
2022-08-17T08:18:54.843Z,57.42
2022-08-17T08:21:47.289Z,56.51
2022-08-17T08:24:31.536Z,56.52
2022-08-17T08:27:07.336Z,56.83
2022-08-17T08:30:05.118Z,56.81
2022-08-17T08:32:50.287Z,56.67
2022-08-17T08:35:40.683Z,55.83
2022-08-17T08:38:25.569Z,54.05
2022-08-17T08:41:07.057Z,54.43
2022-08-17T08:44:07.013Z,54.00
2022-08-17T08:47:28.580Z,53.16
2022-08-17T08:50:38.208Z,53.62
2022-08-17T08:53:25.587Z,53.06
2022-08-17T08:56:06.803Z,53.07
2022-08-17T08:58:56.151Z,52.67
2022-08-17T09:01:23.952Z,53.28
2022-08-17T09:04:25.748Z,50.90
2022-08-17T09:07:01.758Z,50.91
2022-08-17T09:10:08.308Z,50.90
2022-08-17T09:13:09.168Z,50.50
2022-08-17T09:15:48.627Z,50.61
2022-08-17T09:19:00.223Z,51.06
2022-08-17T09:21:50.738Z,49.06
2022-08-17T09:24:43.459Z,48.05
2022-08-17T09:27:20.781Z,49.36
2022-08-17T09:30:02.773Z,47.94
2022-08-17T09:32:57.438Z,48.31
2022-08-17T09:35:37.026Z,48.12
2022-08-17T09:38:35.619Z,47.99
2022-08-17T09:41:31.527Z,47.08
2022-08-17T09:44:26.399Z,47.01
2022-08-17T09:46:56.164Z,48.15
2022-08-17T09:49:35.676Z,47.09
2022-08-17T09:52:24.899Z,46.07
2022-08-17T09:54:55.348Z,46.35
2022-08-17T09:57:40.948Z,45.31
2022-08-17T10:00:17.324Z,45.66
2022-08-17T10:03:22.258Z,45.33
2022-08-17T10:06:09.101Z,45.46
2022-08-17T10:08:40.802Z,44.77
2022-08-17T10:11:52.229Z,44.59
2022-08-17T10:14:37.887Z,45.24
2022-08-17T10:17:15.034Z,45.22
2022-08-17T10:19:54.099Z,43.89
2022-08-17T10:23:00.430Z,42.87
2022-08-17T10:25:55.032Z,43.66
2022-08-17T10:28:30.320Z,43.72
2022-08-17T10:31:30.859Z,42.95
2022-08-17T10:34:08.228Z,41.73
2022-08-17T10:36:50.262Z,41.59
2022-08-17T10:39:34.755Z,41.88
2022-08-17T10:42:32.427Z,41.94
2022-08-17T10:45:16.893Z,40.99
2022-08-17T10:48:05.823Z,41.46
2022-08-17T10:51:03.668Z,41.15
2022-08-17T10:53:33.701Z,40.27
2022-08-17T10:56:15.194Z,41.07
2022-08-17T10:58:54.474Z,39.62
2022-08-17T11:01:47.744Z,39.00
2022-08-17T11:04:42.038Z,37.85
2022-08-17T11:07:44.089Z,37.94
2022-08-17T11:11:04.455Z,36.71
2022-08-17T11:14:09.442Z,36.49
2022-08-17T11:17:01.688Z,37.15
2022-08-17T11:19:53.021Z,37.36
2022-08-17T11:22:33.602Z,36.75
2022-08-17T11:25:20.801Z,36.18
2022-08-17T11:27:54.011Z,36.28
2022-08-17T11:42:27.092Z,32.71
2022-08-17T11:48:27.044Z,33.21
2022-08-17T11:51:19.125Z,33.21
2022-08-17T11:53:46.881Z,33.31
2022-08-17T11:56:35.206Z,32.27
2022-08-17T11:59:23.781Z,31.17
2022-08-17T12:01:56.805Z,31.25
2022-08-17T12:04:32.706Z,31.28
2022-08-17T12:07:19.375Z,32.45
2022-08-17T12:09:50.992Z,30.32
2022-08-17T12:12:22.899Z,29.57
2022-08-17T12:15:12.903Z,29.44
2022-08-17T12:17:52.025Z,28.71
2022-08-17T12:20:40.743Z,28.21
2022-08-17T12:23:41.947Z,29.20
2022-08-17T12:26:22.481Z,28.57
2022-08-17T12:28:57.445Z,28.64
2022-08-17T12:31:35.540Z,28.26
2022-08-17T12:34:05.127Z,27.79
2022-08-17T12:36:33.436Z,27.40
2022-08-17T12:39:12.852Z,27.99
2022-08-17T12:41:50.308Z,27.73
2022-08-17T12:44:19.551Z,28.17
2022-08-17T12:46:54.850Z,27.34
2022-08-17T12:49:32.605Z,26.70
2022-08-17T12:52:20.055Z,26.48
2022-08-17T12:55:06.810Z,25.91
2022-08-17T12:57:44.398Z,25.40
2022-08-17T13:00:18.174Z,25.42
2022-08-17T13:03:19.323Z,24.30
2022-08-17T13:05:53.080Z,24.75
2022-08-17T13:08:38.210Z,24.75
2022-08-17T13:11:18.862Z,25.08
2022-08-17T13:13:56.888Z,25.42
2022-08-17T13:16:27.798Z,25.99
2022-08-17T13:19:15.786Z,26.42
2022-08-17T13:21:52.109Z,27.24
2022-08-17T13:24:26.304Z,24.89
2022-08-17T13:27:08.157Z,23.92
2022-08-17T13:29:44.783Z,23.77
2022-08-17T13:32:16.495Z,23.71
2022-08-17T13:35:12.325Z,23.53
2022-08-17T13:37:40.688Z,23.64
2022-08-17T13:40:09.980Z,23.37
2022-08-17T13:42:51.629Z,22.80
2022-08-17T13:45:35.095Z,22.31
2022-08-17T13:48:07.681Z,21.65
2022-08-17T13:50:37.030Z,21.30
2022-08-17T13:53:18.110Z,21.07
2022-08-17T13:56:08.200Z,21.77
2022-08-17T13:58:54.954Z,22.55
2022-08-17T14:01:41.559Z,22.44
2022-08-17T14:04:18.872Z,22.55
2022-08-17T14:06:54.385Z,22.38
2022-08-17T14:09:29.206Z,22.27
2022-08-17T14:11:59.673Z,22.87
2022-08-17T14:14:27.595Z,21.79
2022-08-17T14:16:57.279Z,21.95
2022-08-17T14:19:25.464Z,22.49
2022-08-17T14:21:59.321Z,22.18
2022-08-17T14:24:39.991Z,21.86
2022-08-17T14:27:10.323Z,22.26
2022-08-17T14:29:37.277Z,22.41
2022-08-17T14:32:17.639Z,23.12
2022-08-17T14:34:46.192Z,23.24
2022-08-17T14:37:13.596Z,22.97
2022-08-17T14:39:41.110Z,22.59
2022-08-17T14:42:11.520Z,22.30
2022-08-17T14:44:39.752Z,22.70
2022-08-17T14:47:12.784Z,22.70
2022-08-17T14:49:40.038Z,22.74
2022-08-17T14:52:07.309Z,22.82
2022-08-17T14:54:34.797Z,21.93
2022-08-17T14:57:22.495Z,21.62
2022-08-17T14:59:54.643Z,21.45
2022-08-17T15:02:29.268Z,21.42
2022-08-17T15:05:03.221Z,20.94
2022-08-17T15:07:32.477Z,20.96
2022-08-17T15:10:02.905Z,20.80
2022-08-17T15:12:33.998Z,21.47
2022-08-17T15:15:06.605Z,22.12
2022-08-17T15:17:44.397Z,22.10
2022-08-17T15:20:27.689Z,22.16
2022-08-17T15:22:57.565Z,21.81
2022-08-17T15:25:27.799Z,21.81
2022-08-17T15:27:56.068Z,22.16
2022-08-17T15:30:23.857Z,21.93
2022-08-17T15:32:55.044Z,22.04
2022-08-17T15:35:28.042Z,22.17
2022-08-17T15:38:12.137Z,21.94
2022-08-17T15:40:46.239Z,23.27
2022-08-17T15:43:24.799Z,23.15
2022-08-17T15:46:04.598Z,22.27
2022-08-17T15:48:43.757Z,21.75
2022-08-17T15:51:27.209Z,21.36
2022-08-17T15:54:04.598Z,21.02
2022-08-17T15:56:47.055Z,20.37
2022-08-17T15:59:14.277Z,20.98
2022-08-17T16:03:04.649Z,20.84
2022-08-17T16:04:29.986Z,20.38
2022-08-17T16:06:59.368Z,20.38
2022-08-17T16:09:27.304Z,21.33
2022-08-17T16:11:56.418Z,21.06
2022-08-17T16:14:32.342Z,21.70
2022-08-17T16:17:03.842Z,22.13
2022-08-17T16:19:31.097Z,22.71
2022-08-17T16:21:58.644Z,22.38
2022-08-17T16:24:26.249Z,22.17
2022-08-17T16:26:55.501Z,22.09
2022-08-17T16:29:23.130Z,22.36
2022-08-17T16:31:51.684Z,22.29
2022-08-17T16:34:19.119Z,22.05
2022-08-17T16:36:55.110Z,22.03
2022-08-17T16:39:29.467Z,21.56
2022-08-17T16:41:57.620Z,21.68
2022-08-17T16:44:26.007Z,21.68
2022-08-17T16:46:53.973Z,21.97
2022-08-17T16:49:35.466Z,23.08
2022-08-17T16:52:05.128Z,23.43
2022-08-17T16:54:32.712Z,23.23
2022-08-17T16:56:59.675Z,23.59
2022-08-17T16:59:38.776Z,23.44
2022-08-17T17:02:12.885Z,23.62
2022-08-17T17:04:48.189Z,23.52
2022-08-17T17:07:44.229Z,24.21
2022-08-17T17:10:15.579Z,25.64
2022-08-17T17:13:02.835Z,26.33
2022-08-17T17:16:01.257Z,27.08
2022-08-17T17:18:56.278Z,28.31
2022-08-17T17:21:31.573Z,29.68
2022-08-17T17:24:10.423Z,30.44
2022-08-17T17:27:21.296Z,30.92
2022-08-17T17:30:04.358Z,32.34
2022-08-17T17:32:39.660Z,34.05
2022-08-17T17:35:16.007Z,34.30
2022-08-17T17:37:46.291Z,34.31
2022-08-17T17:40:20.770Z,35.67
2022-08-17T17:42:51.536Z,36.52
2022-08-17T17:45:26.500Z,36.83
2022-08-17T17:47:53.809Z,37.62
2022-08-17T17:50:30.417Z,38.27
2022-08-17T17:53:10.026Z,38.76
2022-08-17T17:56:34.347Z,39.10
2022-08-17T17:59:12.530Z,38.84
2022-08-17T18:01:58.688Z,39.13
2022-08-17T18:04:50.319Z,39.35
2022-08-17T18:07:42.989Z,40.36
2022-08-17T18:10:40.812Z,40.55
2022-08-17T18:13:40.616Z,40.11
2022-08-17T18:16:14.280Z,40.66
2022-08-17T18:18:44.795Z,40.80
2022-08-17T18:21:20.352Z,41.30
2022-08-17T18:23:53.966Z,41.17
2022-08-17T18:26:33.708Z,41.46
2022-08-17T18:29:11.727Z,41.06
2022-08-17T18:31:39.074Z,41.55
2022-08-17T18:34:45.786Z,41.69
2022-08-17T18:37:12.712Z,41.86
2022-08-17T18:39:44.247Z,41.73
2022-08-17T18:42:27.985Z,41.57
2022-08-17T18:44:55.874Z,41.17
2022-08-17T18:47:29.902Z,41.18
2022-08-17T18:50:18.340Z,41.41
2022-08-17T18:52:49.073Z,41.46
2022-08-17T18:55:21.036Z,41.72
2022-08-17T18:57:55.828Z,41.53
2022-08-17T19:00:40.630Z,41.79
2022-08-17T19:03:20.128Z,42.72
2022-08-17T19:05:52.293Z,42.51
2022-08-17T19:08:28.765Z,43.29
2022-08-17T19:10:58.478Z,43.17
2022-08-17T19:13:39.605Z,43.30
2022-08-17T19:16:25.250Z,43.89
2022-08-17T19:18:59.157Z,43.48
2022-08-17T19:21:52.613Z,44.01
2022-08-17T19:24:23.272Z,44.05
2022-08-17T19:26:59.669Z,44.97
2022-08-17T19:29:57.904Z,45.56
2022-08-17T19:32:29.184Z,45.24
2022-08-17T19:34:57.626Z,45.46
2022-08-17T19:37:33.554Z,45.51
2022-08-17T19:40:10.115Z,46.09
2022-08-17T19:42:47.345Z,46.26
2022-08-17T19:45:33.109Z,46.70
2022-08-17T19:48:20.037Z,47.10
2022-08-17T19:50:54.210Z,47.50
2022-08-17T19:54:04.827Z,47.60
2022-08-17T19:56:45.479Z,48.75
2022-08-17T19:59:36.018Z,49.55
2022-08-17T20:02:31.205Z,50.06
2022-08-17T20:05:06.267Z,50.51
2022-08-17T20:07:49.840Z,50.97
2022-08-17T20:10:55.462Z,51.29
2022-08-17T20:13:32.782Z,51.83
2022-08-17T20:16:01.713Z,51.73
2022-08-17T20:18:52.430Z,51.65
2022-08-17T20:21:25.802Z,52.06
2022-08-17T20:23:59.269Z,51.83
2022-08-17T20:26:39.042Z,52.18
2022-08-17T20:29:37.570Z,52.29
2022-08-17T20:32:17.971Z,52.70
2022-08-17T20:34:46.979Z,52.92
2022-08-17T20:37:14.344Z,52.60
2022-08-17T20:39:49.638Z,53.22
2022-08-17T20:42:19.961Z,53.89
2022-08-17T20:44:49.113Z,53.90
2022-08-17T20:47:26.952Z,54.39
2022-08-17T20:49:57.599Z,55.01
2022-08-17T20:52:49.711Z,55.10
2022-08-17T20:55:51.770Z,55.13
2022-08-17T20:58:30.765Z,55.10
2022-08-17T21:01:01.778Z,55.35
2022-08-17T21:03:47.934Z,55.26
2022-08-17T21:06:19.438Z,54.77
2022-08-17T21:09:13.200Z,54.78
2022-08-17T21:11:56.989Z,54.54
2022-08-17T21:14:38.632Z,55.05
2022-08-17T21:17:29.712Z,55.04
2022-08-17T21:20:13.279Z,55.46
2022-08-17T21:22:51.316Z,55.46
2022-08-17T21:25:39.004Z,55.61
2022-08-17T21:28:20.588Z,56.12
2022-08-17T21:30:57.122Z,56.17
2022-08-17T21:33:34.182Z,56.34
2022-08-17T21:36:14.523Z,56.71
2022-08-17T21:38:57.779Z,56.81
2022-08-17T21:41:30.544Z,56.98
2022-08-17T21:44:19.521Z,56.78
2022-08-17T21:46:50.673Z,56.61
2022-08-17T21:49:21.472Z,56.85
2022-08-17T21:51:56.467Z,56.96
2022-08-17T21:54:42.719Z,56.91
2022-08-17T21:57:31.055Z,57.07
2022-08-17T22:00:01.414Z,56.83
2022-08-17T22:02:36.804Z,56.99
2022-08-17T22:05:15.393Z,57.25
2022-08-17T22:07:47.753Z,57.85
2022-08-17T22:10:32.321Z,58.18
2022-08-17T22:13:20.143Z,58.92
2022-08-17T22:15:51.230Z,59.28
2022-08-17T22:18:27.428Z,59.83
2022-08-17T22:21:04.739Z,59.67
2022-08-17T22:23:58.080Z,59.63
2022-08-17T22:27:02.731Z,59.77
2022-08-17T22:29:57.889Z,60.23
2022-08-17T22:32:43.160Z,60.38
2022-08-17T22:35:31.806Z,60.18
2022-08-17T22:38:22.157Z,60.29
2022-08-17T22:40:59.094Z,59.94
2022-08-17T22:43:28.817Z,60.16
2022-08-17T22:45:59.317Z,60.78
2022-08-17T22:48:29.948Z,60.48
2022-08-17T22:51:13.831Z,60.79
2022-08-17T22:54:09.257Z,60.75
2022-08-17T22:56:55.806Z,61.20
2022-08-17T22:59:50.107Z,61.43
2022-08-17T23:02:35.483Z,60.58
2022-08-17T23:05:17.122Z,60.37
2022-08-17T23:07:46.837Z,59.92
2022-08-17T23:10:14.913Z,59.70
2022-08-17T23:12:42.422Z,59.83
2022-08-17T23:15:16.045Z,59.56
2022-08-17T23:17:46.092Z,59.34
2022-08-17T23:20:15.224Z,59.33
2022-08-17T23:22:51.694Z,59.04
2022-08-17T23:25:31.896Z,59.27
2022-08-17T23:28:01.835Z,59.30
2022-08-17T23:30:31.752Z,59.32
2022-08-17T23:33:06.380Z,59.94
2022-08-17T23:35:39.966Z,60.02
2022-08-17T23:38:10.822Z,60.46
2022-08-17T23:40:39.342Z,60.54
2022-08-17T23:43:25.314Z,61.35
2022-08-17T23:45:57.681Z,61.43
2022-08-17T23:48:32.573Z,62.17
2022-08-17T23:51:09.208Z,63.13
2022-08-17T23:53:42.063Z,62.62
2022-08-17T23:56:11.075Z,63.02
2022-08-17T23:58:43.995Z,63.00
